createdAt,value
2023-04-08T00:04:41.412Z,3
2023-04-08T00:14:42.266Z,3.1
2023-04-08T00:24:43.190Z,2.3
2023-04-08T00:34:44.116Z,2.1
2023-04-08T00:44:45.144Z,1.7
2023-04-08T00:54:46.053Z,3.2
2023-04-08T01:04:46.968Z,1.3
2023-04-08T01:14:47.904Z,3.3
2023-04-08T01:24:48.804Z,2.3
2023-04-08T01:34:49.672Z,1.8
2023-04-08T01:44:50.630Z,3.1
2023-04-08T01:54:51.562Z,4.8
2023-04-08T02:04:52.598Z,3.1
2023-04-08T02:14:53.451Z,3.1
2023-04-08T02:24:54.390Z,7
2023-04-08T02:34:55.317Z,7.2
2023-04-08T02:44:56.325Z,12.6
2023-04-08T02:54:57.137Z,10.3
2023-04-08T03:04:58.077Z,5.6
2023-04-08T03:14:59.012Z,4.3
2023-04-08T03:24:59.980Z,4
2023-04-08T03:35:00.996Z,2.5
2023-04-08T03:45:01.934Z,3.5
2023-04-08T03:55:02.864Z,3
2023-04-08T04:05:03.932Z,1.9
2023-04-08T04:15:04.791Z,3.5
2023-04-08T04:25:05.724Z,2.7
2023-04-08T04:35:06.776Z,3.1
2023-04-08T04:45:07.907Z,3
2023-04-08T04:55:08.729Z,1.9
2023-04-08T05:05:09.772Z,1.6
2023-04-08T05:15:13.493Z,2
2023-04-08T05:25:12.079Z,1.6
2023-04-08T05:35:12.852Z,2.2
2023-04-08T05:45:13.912Z,2.2
2023-04-08T05:55:14.795Z,3
2023-04-08T06:05:15.965Z,2.3
2023-04-08T06:15:16.782Z,1.8
2023-04-08T06:25:17.952Z,2.3
2023-04-08T06:35:19.179Z,3.7
2023-04-08T06:45:20.031Z,1.9
2023-04-08T06:55:21.059Z,2.4
2023-04-08T07:05:22.072Z,3.7
2023-04-08T07:15:23.053Z,4.1
2023-04-08T07:25:24.098Z,2.6
2023-04-08T07:35:25.023Z,2.1
2023-04-08T07:45:25.856Z,3.4
2023-04-08T07:55:26.951Z,3.1
2023-04-08T08:05:27.995Z,2.4
2023-04-08T08:15:28.983Z,2.8
2023-04-08T08:25:30.111Z,3.1
2023-04-08T08:35:31.102Z,3.8
2023-04-08T08:45:31.947Z,6
2023-04-08T08:55:50.681Z,5.7
2023-04-08T09:05:34.077Z,5.8
2023-04-08T09:15:35.110Z,4.5
2023-04-08T09:25:36.257Z,3.9
2023-04-08T09:35:37.295Z,3.7
2023-04-08T09:45:38.341Z,6.4
2023-04-08T09:55:39.118Z,4.4
2023-04-08T10:05:40.298Z,5.5
2023-04-08T10:15:41.461Z,4.9
2023-04-08T10:25:42.171Z,7.1
2023-04-08T10:35:43.199Z,5.3
2023-04-08T10:45:45.901Z,5
2023-04-08T10:55:45.091Z,5.8
2023-04-08T11:05:47.670Z,5.3
2023-04-08T11:15:47.369Z,4.1
2023-04-08T11:25:48.260Z,6
2023-04-08T11:35:49.387Z,4.2
2023-04-08T11:45:50.240Z,4.6
2023-04-08T11:55:51.098Z,3.6
2023-04-08T12:05:52.208Z,5
2023-04-08T12:15:53.376Z,3.4
2023-04-08T12:25:54.535Z,4.5
2023-04-08T12:35:55.572Z,3.8
2023-04-08T12:45:56.639Z,4
2023-04-08T12:55:57.610Z,3.9
2023-04-08T13:05:58.708Z,3.8
2023-04-08T13:15:59.865Z,6.5
2023-04-08T13:26:00.749Z,6.5
2023-04-08T13:36:01.798Z,6.4
2023-04-08T13:46:02.898Z,9.3
2023-04-08T13:56:03.872Z,7.1
2023-04-08T14:06:04.908Z,12.3
2023-04-08T14:16:05.992Z,15.9
2023-04-08T14:26:06.995Z,10
2023-04-08T14:36:08.074Z,15.2
2023-04-08T14:46:09.154Z,10.8
2023-04-08T14:56:10.117Z,9.9
2023-04-08T15:06:11.243Z,17.1
2023-04-08T15:16:12.356Z,15.2
2023-04-08T15:26:13.520Z,15.2
2023-04-08T15:36:14.714Z,9.5
2023-04-08T15:46:16.047Z,12.5
2023-04-08T15:56:17.164Z,13.6
2023-04-08T16:06:18.325Z,10.9
2023-04-08T16:16:19.496Z,11.2
2023-04-08T16:26:20.668Z,12.3
2023-04-08T16:36:21.903Z,13.5
2023-04-08T16:46:23.073Z,11.3
2023-04-08T16:56:24.586Z,11.4
2023-04-08T17:06:25.478Z,8.7
2023-04-08T17:16:26.773Z,8.2
2023-04-08T17:26:27.937Z,8.2
2023-04-08T17:36:30.515Z,10.3
2023-04-08T17:46:30.461Z,10.5
2023-04-08T17:56:31.542Z,11.8
2023-04-08T18:06:32.696Z,11.4
2023-04-08T18:16:33.923Z,9.6
2023-04-08T18:26:35.116Z,10
2023-04-08T18:36:36.302Z,9.5
2023-04-08T18:46:37.477Z,17.7
2023-04-08T18:56:38.571Z,9.1
2023-04-08T19:06:39.677Z,15.5
2023-04-08T19:16:41.698Z,13.3
2023-04-08T19:26:41.943Z,11.7
2023-04-08T19:36:43.020Z,11
2023-04-08T19:46:44.090Z,7.4
2023-04-08T19:56:45.096Z,11.8
2023-04-08T20:06:46.144Z,9.2
2023-04-08T20:16:47.143Z,13.7
2023-04-08T20:26:48.166Z,7.6
2023-04-08T20:36:49.109Z,17.7
2023-04-08T20:46:50.052Z,9.5
2023-04-08T20:56:50.993Z,7.3
2023-04-08T21:06:52.051Z,9.5
2023-04-08T21:16:52.770Z,6.1
2023-04-08T21:26:53.669Z,8.2
2023-04-08T21:36:54.573Z,8.6
2023-04-08T21:46:55.455Z,8.7
2023-04-08T21:56:56.359Z,9.4
2023-04-08T22:06:57.255Z,10.4
2023-04-08T22:16:58.066Z,9.5
2023-04-08T22:26:58.934Z,12.1
2023-04-08T22:36:59.945Z,11.2
2023-04-08T22:47:00.851Z,9.9
2023-04-08T22:57:01.800Z,7.3
2023-04-08T23:07:02.729Z,9.5
2023-04-08T23:17:05.526Z,7.1
2023-04-08T23:27:04.416Z,10.6
2023-04-08T23:37:05.218Z,9.4
2023-04-08T23:47:06.003Z,14.8
2023-04-08T23:57:06.899Z,8.2
